CheckWX is a tool to help pilots better visualize weather data.  It is not intended as a substitute for an official pre-flight weather briefing.

01:00:02 UTC

KGVQ METAR
Genesee County Airport
Batavia, New York, USA
Current

1 hour ago

KGVQ 222356Z AUTO 13007KT 10SM FEW080 OVC100 17/07 A3007 RMK AO2 SLP209 60000 T01670072 10189 20167 56028
Observed
May-22 @ 23:56 UTC
Wind
  • 130° at 7 KTS
Visibility
10 SM
Flight Rules
VFR
Cloud Levels
  • Few at 8,000' AGL
  • Overcast at 10,000' AGL
Temperature
17°C / 63°F
Dewpoint
C / 45°F
Humidity
52%
Altimeter
30.07" Hg
Pressure
1018.32 hPa
Previous

2 hours ago

KGVQ 222256Z AUTO 12006KT 10SM FEW070 OVC110 17/06 A3009 RMK AO2 RAE02 SLP219 P0000 T01720061
Observed
May-22 @ 22:56 UTC
Wind
  • 120° at 6 KTS
Visibility
10 SM
Flight Rules
VFR
Cloud Levels
  • Few at 7,000' AGL
  • Overcast at 11,000' AGL
Temperature
17°C / 63°F
Dewpoint
C / 43°F
Humidity
49%
Altimeter
30.09" Hg
Pressure
1018.92 hPa
Current Rain
0.01"
Previous

3 hours ago

KGVQ 222156Z AUTO 12008KT 10SM -RA OVC100 17/06 A3012 RMK AO2 RAE2058B48 SLP230 P0000 T01720056
Observed
May-22 @ 21:56 UTC
Wind
  • 120° at 8 KTS
Visibility
10 SM
Flight Rules
VFR
Conditions
Light Rain
Cloud Levels
  • Overcast at 10,000' AGL
Temperature
17°C / 63°F
Dewpoint
C / 43°F
Humidity
49%
Altimeter
30.12" Hg
Pressure
1020.02 hPa
Current Rain
0.01"